createdAt,value
2022-11-03T00:01:50.967Z,100.00
2022-11-03T00:04:21.318Z,100.00
2022-11-03T00:06:54.503Z,100.00
2022-11-03T00:09:23.679Z,100.00
2022-11-03T00:11:52.160Z,100.00
2022-11-03T00:14:20.807Z,100.00
2022-11-03T00:16:48.648Z,100.00
2022-11-03T00:19:17.648Z,100.00
2022-11-03T00:21:45.994Z,100.00
2022-11-03T00:24:13.992Z,100.00
2022-11-03T00:26:41.834Z,100.00
2022-11-03T00:29:14.424Z,100.00
2022-11-03T00:31:44.259Z,100.00
2022-11-03T00:34:12.845Z,100.00
2022-11-03T00:36:43.132Z,100.00
2022-11-03T00:39:11.676Z,100.00
2022-11-03T00:41:40.254Z,100.00
2022-11-03T00:44:10.686Z,100.00
2022-11-03T00:46:38.914Z,100.00
2022-11-03T00:49:06.850Z,100.00
2022-11-03T00:51:37.577Z,100.00
2022-11-03T00:54:07.400Z,100.00
2022-11-03T00:56:38.015Z,100.00
2022-11-03T00:59:07.429Z,100.00
2022-11-03T01:01:45.344Z,100.00
2022-11-03T01:04:35.473Z,100.00
2022-11-03T01:07:07.791Z,100.00
2022-11-03T01:09:38.896Z,100.00
2022-11-03T01:12:13.821Z,100.00
2022-11-03T01:14:46.672Z,100.00
2022-11-03T01:17:24.172Z,100.00
2022-11-03T01:19:52.432Z,100.00
2022-11-03T01:22:21.816Z,100.00
2022-11-03T01:24:49.643Z,100.00
2022-11-03T01:27:20.904Z,100.00
2022-11-03T01:29:48.900Z,100.00
2022-11-03T01:32:16.903Z,100.00
2022-11-03T01:34:44.788Z,100.00
2022-11-03T01:37:12.618Z,100.00
2022-11-03T01:39:40.370Z,100.00
2022-11-03T01:42:13.613Z,100.00
2022-11-03T01:44:48.934Z,100.00
2022-11-03T01:47:30.270Z,100.00
2022-11-03T01:50:03.099Z,100.00
2022-11-03T01:52:47.789Z,100.00
2022-11-03T01:55:29.804Z,100.00
2022-11-03T01:58:06.050Z,100.00
2022-11-03T02:00:35.119Z,100.00
2022-11-03T02:03:03.765Z,100.00
2022-11-03T02:05:31.879Z,100.00
2022-11-03T02:10:38.070Z,100.00
2022-11-03T02:13:18.386Z,100.00
2022-11-03T02:15:49.299Z,100.00
2022-11-03T02:18:20.463Z,100.00
2022-11-03T02:20:58.977Z,100.00
2022-11-03T02:23:37.852Z,100.00
2022-11-03T02:26:08.336Z,100.00
2022-11-03T02:28:36.390Z,100.00
2022-11-03T02:31:23.908Z,100.00
2022-11-03T02:34:08.952Z,100.00
2022-11-03T02:37:30.821Z,100.00
2022-11-03T02:40:22.351Z,100.00
2022-11-03T02:42:52.947Z,100.00
2022-11-03T02:45:25.631Z,100.00
2022-11-03T02:47:57.736Z,100.00
2022-11-03T02:50:30.538Z,100.00
2022-11-03T02:52:59.030Z,100.00
2022-11-03T02:55:35.724Z,100.00
2022-11-03T02:58:32.654Z,100.00
2022-11-03T03:01:15.283Z,100.00
2022-11-03T03:03:53.022Z,100.00
2022-11-03T03:06:34.336Z,100.00
2022-11-03T03:09:07.619Z,100.00
2022-11-03T03:11:38.398Z,100.00
2022-11-03T03:14:16.927Z,100.00
2022-11-03T03:16:54.759Z,100.00
2022-11-03T03:19:38.569Z,100.00
2022-11-03T03:22:24.499Z,100.00
2022-11-03T03:25:14.982Z,100.00
2022-11-03T03:27:49.098Z,100.00
2022-11-03T03:30:17.931Z,100.00
2022-11-03T03:32:49.395Z,100.00
2022-11-03T03:35:28.087Z,100.00
2022-11-03T03:38:04.610Z,100.00
2022-11-03T03:40:39.048Z,100.00
2022-11-03T03:43:10.238Z,100.00
2022-11-03T03:45:38.938Z,100.00
2022-11-03T03:48:07.613Z,100.00
2022-11-03T03:50:40.174Z,100.00
2022-11-03T03:53:11.836Z,100.00
2022-11-03T03:55:43.458Z,100.00
2022-11-03T03:58:14.112Z,100.00
2022-11-03T04:00:42.867Z,100.00
2022-11-03T04:03:17.984Z,100.00
2022-11-03T04:05:46.564Z,100.00
2022-11-03T04:08:15.724Z,100.00
2022-11-03T04:11:02.709Z,100.00
2022-11-03T04:13:49.433Z,100.00
2022-11-03T04:16:35.553Z,100.00
2022-11-03T04:19:21.970Z,100.00
2022-11-03T04:22:08.399Z,100.00
2022-11-03T04:24:36.366Z,100.00
2022-11-03T04:27:33.181Z,100.00
2022-11-03T04:30:17.627Z,100.00
2022-11-03T04:32:48.053Z,100.00
2022-11-03T04:35:18.654Z,100.00
2022-11-03T04:37:51.761Z,100.00
2022-11-03T04:40:19.667Z,100.00
2022-11-03T04:42:47.740Z,100.00
2022-11-03T04:45:28.821Z,100.00
2022-11-03T04:47:59.768Z,100.00
2022-11-03T04:50:27.880Z,100.00
2022-11-03T04:52:58.245Z,100.00
2022-11-03T04:55:27.062Z,100.00
2022-11-03T04:57:58.733Z,100.00
2022-11-03T05:00:26.651Z,100.00
2022-11-03T05:02:56.197Z,100.00
2022-11-03T05:05:26.698Z,100.00
2022-11-03T05:07:57.058Z,100.00
2022-11-03T05:10:26.645Z,100.00
2022-11-03T05:12:55.296Z,100.00
2022-11-03T05:15:36.198Z,100.00
2022-11-03T05:18:31.639Z,100.00
2022-11-03T05:21:09.622Z,100.00
2022-11-03T05:23:51.134Z,100.00
2022-11-03T05:26:24.814Z,100.00
2022-11-03T05:29:00.041Z,100.00
2022-11-03T05:31:28.973Z,100.00
2022-11-03T05:34:02.722Z,100.00
2022-11-03T05:36:33.334Z,100.00
2022-11-03T05:39:31.474Z,100.00
2022-11-03T05:42:00.351Z,100.00
2022-11-03T05:44:37.961Z,99.34
2022-11-03T05:47:36.466Z,99.65
2022-11-03T05:50:25.666Z,100.00
2022-11-03T05:53:19.778Z,99.64
2022-11-03T05:55:47.647Z,98.32
2022-11-03T05:58:25.908Z,98.16
2022-11-03T06:00:54.876Z,98.03
2022-11-03T06:03:29.455Z,97.20
2022-11-03T06:05:58.860Z,96.99
2022-11-03T06:08:33.900Z,97.31
2022-11-03T06:11:03.910Z,97.62
2022-11-03T06:13:37.710Z,96.95
2022-11-03T06:16:37.973Z,96.74
2022-11-03T06:19:22.259Z,97.07
2022-11-03T06:21:51.823Z,97.85
2022-11-03T06:24:23.350Z,96.49
2022-11-03T06:26:53.017Z,95.67
2022-11-03T06:29:22.217Z,94.86
2022-11-03T06:31:53.243Z,94.50
2022-11-03T06:34:34.556Z,94.49
2022-11-03T06:37:13.735Z,94.02
2022-11-03T06:39:42.002Z,94.85
2022-11-03T06:42:15.255Z,97.09
2022-11-03T06:44:47.796Z,97.82
2022-11-03T06:47:24.454Z,98.18
2022-11-03T06:49:54.676Z,99.97
2022-11-03T06:52:30.895Z,98.69
2022-11-03T06:55:12.101Z,99.08
2022-11-03T06:57:46.513Z,99.75
2022-11-03T07:00:34.560Z,100.00
2022-11-03T07:03:09.833Z,99.55
2022-11-03T07:05:39.029Z,99.98
2022-11-03T07:08:29.391Z,99.14
2022-11-03T07:10:59.990Z,98.59
2022-11-03T07:13:29.297Z,98.92
2022-11-03T07:15:57.082Z,98.28
2022-11-03T07:18:39.785Z,98.16
2022-11-03T07:21:20.216Z,98.73
2022-11-03T07:23:48.105Z,96.66
2022-11-03T07:26:16.127Z,95.92
2022-11-03T07:28:44.127Z,95.81
2022-11-03T07:31:20.521Z,97.14
2022-11-03T07:33:48.702Z,97.67
2022-11-03T07:36:21.053Z,96.37
2022-11-03T07:38:52.591Z,96.67
2022-11-03T07:41:24.398Z,96.53
2022-11-03T07:43:56.266Z,98.01
2022-11-03T07:46:25.408Z,97.48
2022-11-03T07:49:02.913Z,98.06
2022-11-03T07:51:37.677Z,98.35
2022-11-03T07:54:08.702Z,97.79
2022-11-03T07:56:52.270Z,97.05
2022-11-03T07:59:29.547Z,96.30
2022-11-03T08:01:58.952Z,97.31
2022-11-03T08:04:29.851Z,96.69
2022-11-03T08:06:57.955Z,95.88
2022-11-03T08:09:25.850Z,94.94
2022-11-03T08:11:53.930Z,95.75
2022-11-03T08:14:21.777Z,95.40
2022-11-03T08:16:49.747Z,96.40
2022-11-03T08:19:17.711Z,95.09
2022-11-03T08:21:45.923Z,96.10
2022-11-03T08:24:13.805Z,96.28
2022-11-03T08:26:41.549Z,95.67
2022-11-03T08:29:10.161Z,96.11
2022-11-03T08:31:37.986Z,94.45
2022-11-03T08:34:05.807Z,95.80
2022-11-03T08:36:33.884Z,95.52
2022-11-03T08:39:01.629Z,95.65
2022-11-03T08:41:29.430Z,95.63
2022-11-03T08:43:57.551Z,96.96
2022-11-03T08:46:25.384Z,96.18
2022-11-03T08:48:53.290Z,96.39
2022-11-03T08:51:21.176Z,93.65
2022-11-03T08:53:54.200Z,93.64
2022-11-03T08:56:22.686Z,91.59
2022-11-03T08:58:50.763Z,91.88
2022-11-03T09:01:18.920Z,88.07
2022-11-03T09:03:47.082Z,86.84
2022-11-03T09:06:15.101Z,87.40
2022-11-03T09:11:30.670Z,81.40
2022-11-03T09:13:58.503Z,79.16
2022-11-03T09:16:26.752Z,79.46
2022-11-03T09:18:54.660Z,80.28
2022-11-03T09:21:22.759Z,81.87
2022-11-03T09:23:50.682Z,83.56
2022-11-03T09:26:19.144Z,85.33
2022-11-03T09:28:47.204Z,85.16
2022-11-03T09:31:15.485Z,85.47
2022-11-03T09:33:43.397Z,83.64
2022-11-03T09:36:11.277Z,82.05
2022-11-03T09:38:39.124Z,80.36
2022-11-03T09:41:18.562Z,80.87
2022-11-03T09:43:57.839Z,80.17
2022-11-03T09:46:28.669Z,78.24
2022-11-03T09:48:57.271Z,76.13
2022-11-03T09:51:27.540Z,75.21
2022-11-03T09:54:02.135Z,74.48
2022-11-03T09:56:30.831Z,75.01
2022-11-03T09:59:00.154Z,74.09
2022-11-03T10:01:28.234Z,77.10
2022-11-03T10:04:00.305Z,76.93
2022-11-03T10:06:29.431Z,77.06
2022-11-03T10:08:57.305Z,74.87
2022-11-03T10:11:25.197Z,76.07
2022-11-03T10:13:56.608Z,76.30
2022-11-03T10:16:26.511Z,76.75
2022-11-03T10:18:54.600Z,75.83
2022-11-03T10:21:34.193Z,75.61
2022-11-03T10:24:01.990Z,77.56
2022-11-03T10:26:35.757Z,77.34
2022-11-03T10:29:09.950Z,77.89
2022-11-03T10:31:42.281Z,78.38
2022-11-03T10:34:37.717Z,78.83
2022-11-03T10:37:25.659Z,78.42
2022-11-03T10:39:55.698Z,78.79
2022-11-03T10:42:29.268Z,78.35
2022-11-03T10:45:23.027Z,77.77
2022-11-03T10:48:07.199Z,78.54
2022-11-03T10:50:35.260Z,78.57
2022-11-03T10:53:03.906Z,77.80
2022-11-03T10:55:32.316Z,78.15
2022-11-03T10:58:00.278Z,78.92
2022-11-03T11:00:28.090Z,78.35
2022-11-03T11:03:00.469Z,77.49
2022-11-03T11:05:28.770Z,75.79
2022-11-03T11:07:56.953Z,77.23
2022-11-03T11:10:27.107Z,76.96
2022-11-03T11:13:18.138Z,77.51
2022-11-03T11:15:47.331Z,77.46
2022-11-03T11:18:30.343Z,78.81
2022-11-03T11:21:02.719Z,78.08
2022-11-03T11:23:30.490Z,77.40
2022-11-03T11:26:10.575Z,78.47
2022-11-03T11:28:41.262Z,75.22
2022-11-03T11:31:32.796Z,74.87
2022-11-03T11:34:09.819Z,73.65
2022-11-03T11:36:39.795Z,73.55
2022-11-03T11:39:20.435Z,72.47
2022-11-03T11:42:09.700Z,71.10
2022-11-03T11:44:45.973Z,71.63
2022-11-03T11:47:43.929Z,75.34
2022-11-03T11:50:14.454Z,74.20
2022-11-03T11:52:49.838Z,75.78
2022-11-03T11:55:42.384Z,75.34
2022-11-03T11:58:18.548Z,76.10
2022-11-03T12:01:19.947Z,77.30
2022-11-03T12:03:48.688Z,73.88
2022-11-03T12:06:16.890Z,74.48
2022-11-03T12:08:44.773Z,74.10
2022-11-03T12:11:13.901Z,76.23
2022-11-03T12:13:54.039Z,76.82
2022-11-03T12:16:36.467Z,80.76
2022-11-03T12:19:34.171Z,80.96
2022-11-03T12:22:04.066Z,79.41
2022-11-03T12:24:31.960Z,81.00
2022-11-03T12:27:01.180Z,80.64
2022-11-03T12:29:29.392Z,80.10
2022-11-03T12:31:57.292Z,81.76
2022-11-03T12:34:25.338Z,81.71
2022-11-03T12:36:56.187Z,83.39
2022-11-03T12:39:24.348Z,82.57
2022-11-03T12:41:52.143Z,82.84
2022-11-03T12:44:20.003Z,82.60
2022-11-03T12:46:48.022Z,82.01
2022-11-03T12:49:15.764Z,80.50
2022-11-03T12:51:44.414Z,81.40
2022-11-03T12:54:12.193Z,82.19
2022-11-03T12:56:41.045Z,81.29
2022-11-03T12:59:09.428Z,81.35
2022-11-03T13:01:37.902Z,81.68
2022-11-03T13:04:06.469Z,82.44
2022-11-03T13:06:34.786Z,83.41
2022-11-03T13:09:02.852Z,84.11
2022-11-03T13:11:49.184Z,83.94
2022-11-03T13:14:17.139Z,83.38
2022-11-03T13:16:45.031Z,84.52
2022-11-03T13:19:13.037Z,85.10
2022-11-03T13:21:42.746Z,85.81
2022-11-03T13:24:10.755Z,85.44
2022-11-03T13:26:38.929Z,86.26
2022-11-03T13:29:08.376Z,87.05
2022-11-03T13:31:37.789Z,86.66
2022-11-03T13:34:06.832Z,86.67
2022-11-03T13:36:38.291Z,86.09
2022-11-03T13:39:06.342Z,86.58
2022-11-03T13:41:34.875Z,85.98
2022-11-03T13:44:02.861Z,86.18
2022-11-03T13:46:30.871Z,87.75
2022-11-03T13:51:47.392Z,90.08
2022-11-03T13:59:52.201Z,87.12
2022-11-03T14:05:11.282Z,88.48
2022-11-03T14:07:39.381Z,87.09
2022-11-03T14:10:07.694Z,87.74
2022-11-03T14:12:36.402Z,87.03
2022-11-03T14:15:07.809Z,87.64
2022-11-03T14:17:36.273Z,87.76
2022-11-03T14:20:05.746Z,84.67
2022-11-03T14:22:33.999Z,85.18
2022-11-03T14:25:02.670Z,87.26
2022-11-03T14:27:30.647Z,84.70
2022-11-03T14:29:58.601Z,85.38
2022-11-03T14:32:26.977Z,84.92
2022-11-03T14:34:54.908Z,85.10
2022-11-03T14:37:25.618Z,87.23
2022-11-03T14:39:54.530Z,85.74
2022-11-03T14:42:22.371Z,85.65
2022-11-03T14:44:50.424Z,85.32
2022-11-03T14:47:21.828Z,86.37
2022-11-03T14:49:49.892Z,86.78
2022-11-03T14:52:18.026Z,86.11
2022-11-03T14:54:45.909Z,87.69
2022-11-03T14:57:13.840Z,87.41
2022-11-03T14:59:42.410Z,88.61
2022-11-03T15:02:10.751Z,86.90
2022-11-03T15:04:38.797Z,89.11
2022-11-03T15:07:06.883Z,89.62
2022-11-03T15:09:34.713Z,90.50
2022-11-03T15:12:02.657Z,90.89
2022-11-03T15:14:30.580Z,89.91
2022-11-03T15:16:58.542Z,91.68
2022-11-03T15:19:26.487Z,92.01
2022-11-03T15:21:54.581Z,91.81
2022-11-03T15:27:11.081Z,92.01
2022-11-03T15:29:38.867Z,91.62
2022-11-03T15:32:06.987Z,92.02
2022-11-03T15:34:35.967Z,92.46
2022-11-03T15:37:03.830Z,92.94
2022-11-03T15:39:31.794Z,91.87
2022-11-03T15:42:00.412Z,90.97
2022-11-03T15:44:28.293Z,92.78
2022-11-03T15:46:56.122Z,92.06
2022-11-03T15:49:24.140Z,92.48
2022-11-03T15:51:52.176Z,92.64
2022-11-03T15:54:19.991Z,92.61
2022-11-03T15:56:48.012Z,92.47
2022-11-03T15:59:16.229Z,91.71
2022-11-03T16:01:44.410Z,92.66
2022-11-03T16:04:12.398Z,93.20
2022-11-03T16:07:06.356Z,92.30
2022-11-03T16:09:28.269Z,94.39
2022-11-03T16:11:56.275Z,95.20
2022-11-03T16:14:24.256Z,95.62
2022-11-03T16:16:52.056Z,93.86
2022-11-03T16:19:20.043Z,92.71
2022-11-03T16:21:47.902Z,92.87
2022-11-03T16:24:15.966Z,94.67
2022-11-03T16:26:44.759Z,95.91
2022-11-03T16:29:12.793Z,95.78
2022-11-03T16:31:40.731Z,93.96
2022-11-03T16:34:08.793Z,94.50
2022-11-03T16:36:37.151Z,94.65
2022-11-03T16:39:05.308Z,94.58
2022-11-03T16:41:33.656Z,93.58
2022-11-03T16:44:04.400Z,94.63
2022-11-03T16:46:32.325Z,92.70
2022-11-03T16:51:33.326Z,92.03
2022-11-03T16:54:04.576Z,92.71
2022-11-03T16:56:32.569Z,91.47
2022-11-03T16:59:00.516Z,92.99
2022-11-03T17:01:29.802Z,94.67
2022-11-03T17:03:58.064Z,96.00
2022-11-03T17:06:25.938Z,97.38
2022-11-03T17:08:54.065Z,97.58
2022-11-03T17:11:36.296Z,97.89
2022-11-03T17:14:07.047Z,97.55
2022-11-03T17:16:35.318Z,98.75
2022-11-03T17:19:03.793Z,100.00
2022-11-03T17:21:32.207Z,100.00
2022-11-03T17:24:00.423Z,98.56
2022-11-03T17:26:43.059Z,99.77
2022-11-03T17:29:16.358Z,99.53
2022-11-03T17:31:45.214Z,99.44
2022-11-03T17:34:18.667Z,100.00
2022-11-03T17:36:46.661Z,100.00
2022-11-03T17:39:16.962Z,99.95
2022-11-03T17:41:45.938Z,98.13
2022-11-03T17:44:17.357Z,98.23
2022-11-03T17:46:48.152Z,99.36
2022-11-03T17:49:17.846Z,99.10
2022-11-03T17:52:33.030Z,100.00
2022-11-03T17:56:31.992Z,100.00
2022-11-03T17:59:54.376Z,100.00
2022-11-03T18:02:28.819Z,99.97
2022-11-03T18:06:21.153Z,100.00
2022-11-03T18:08:30.922Z,100.00
2022-11-03T18:12:05.501Z,100.00
2022-11-03T18:15:17.658Z,100.00
2022-11-03T18:17:51.143Z,100.00
2022-11-03T18:20:23.029Z,100.00
2022-11-03T18:22:51.119Z,100.00
2022-11-03T18:25:21.441Z,100.00
2022-11-03T18:27:49.491Z,99.90
2022-11-03T18:30:17.600Z,100.00
2022-11-03T18:32:46.451Z,100.00
2022-11-03T18:35:27.565Z,100.00
2022-11-03T18:37:56.715Z,100.00
2022-11-03T18:40:24.826Z,100.00
2022-11-03T18:42:53.073Z,100.00
2022-11-03T18:45:21.994Z,100.00
2022-11-03T18:47:50.035Z,100.00
2022-11-03T18:50:19.209Z,100.00
2022-11-03T18:52:49.527Z,100.00
2022-11-03T18:55:19.231Z,100.00
2022-11-03T18:57:47.618Z,100.00
2022-11-03T19:00:49.715Z,100.00
2022-11-03T19:04:18.245Z,100.00
2022-11-03T19:07:23.922Z,100.00
2022-11-03T19:10:08.773Z,100.00
2022-11-03T19:12:40.876Z,100.00
2022-11-03T19:15:30.783Z,100.00
2022-11-03T19:18:07.588Z,100.00
2022-11-03T19:20:36.049Z,100.00
2022-11-03T19:23:04.711Z,100.00
2022-11-03T19:25:32.889Z,100.00
2022-11-03T19:28:01.064Z,100.00
2022-11-03T19:30:28.965Z,100.00
2022-11-03T19:32:58.231Z,100.00
2022-11-03T19:35:33.136Z,100.00
2022-11-03T19:38:05.574Z,100.00
2022-11-03T19:40:33.942Z,100.00
2022-11-03T19:43:01.868Z,100.00
2022-11-03T19:45:29.684Z,100.00
2022-11-03T19:50:51.910Z,100.00
2022-11-03T19:53:33.457Z,100.00
2022-11-03T19:56:01.645Z,100.00
2022-11-03T19:58:29.920Z,100.00
2022-11-03T20:00:58.347Z,100.00
2022-11-03T20:03:26.773Z,100.00
2022-11-03T20:05:57.013Z,100.00
2022-11-03T20:08:27.925Z,100.00
2022-11-03T20:10:56.504Z,100.00
2022-11-03T20:13:29.056Z,100.00
2022-11-03T20:16:01.354Z,100.00
2022-11-03T20:18:29.807Z,100.00
2022-11-03T20:21:04.488Z,100.00
2022-11-03T20:23:35.461Z,100.00
2022-11-03T20:26:03.731Z,100.00
2022-11-03T20:28:36.428Z,100.00
2022-11-03T20:31:08.150Z,100.00
2022-11-03T20:33:36.402Z,100.00
2022-11-03T20:36:04.956Z,100.00
2022-11-03T20:38:33.583Z,100.00
2022-11-03T20:41:07.148Z,100.00
2022-11-03T20:43:41.874Z,100.00
2022-11-03T20:46:23.810Z,100.00
2022-11-03T20:48:52.812Z,100.00
2022-11-03T20:51:24.180Z,100.00
2022-11-03T20:53:52.879Z,100.00
2022-11-03T20:56:27.079Z,100.00
2022-11-03T20:58:57.590Z,100.00
2022-11-03T21:01:33.487Z,100.00
2022-11-03T21:04:03.491Z,100.00
2022-11-03T21:06:33.043Z,100.00
2022-11-03T21:09:04.974Z,100.00
2022-11-03T21:11:39.909Z,100.00
2022-11-03T21:14:30.004Z,100.00
2022-11-03T21:17:16.636Z,100.00
2022-11-03T21:20:02.218Z,100.00
2022-11-03T21:22:53.937Z,100.00
2022-11-03T21:25:24.295Z,100.00
2022-11-03T21:27:54.470Z,100.00
2022-11-03T21:30:22.775Z,100.00
2022-11-03T21:32:51.010Z,100.00
2022-11-03T21:35:21.773Z,100.00
2022-11-03T21:37:49.763Z,100.00
2022-11-03T21:40:18.248Z,100.00
2022-11-03T21:43:04.942Z,100.00
2022-11-03T21:45:33.409Z,100.00
2022-11-03T21:48:20.606Z,100.00
2022-11-03T21:50:49.289Z,100.00
2022-11-03T21:53:17.759Z,100.00
2022-11-03T21:55:53.785Z,100.00
2022-11-03T21:58:21.896Z,100.00
2022-11-03T22:00:50.033Z,100.00
2022-11-03T22:03:18.156Z,100.00
2022-11-03T22:05:46.106Z,100.00
2022-11-03T22:08:13.897Z,100.00
2022-11-03T22:10:41.801Z,100.00
2022-11-03T22:13:10.120Z,100.00
2022-11-03T22:15:57.017Z,100.00
2022-11-03T22:18:25.685Z,100.00
2022-11-03T22:21:16.424Z,100.00
2022-11-03T22:24:02.863Z,100.00
2022-11-03T22:26:49.118Z,100.00
2022-11-03T22:29:35.418Z,100.00
2022-11-03T22:32:03.295Z,100.00
2022-11-03T22:34:49.615Z,100.00
2022-11-03T22:37:17.434Z,100.00
2022-11-03T22:40:04.033Z,100.00
2022-11-03T22:42:50.744Z,100.00
2022-11-03T22:45:37.183Z,100.00
2022-11-03T22:48:05.587Z,100.00
2022-11-03T22:50:33.652Z,100.00
2022-11-03T22:53:21.435Z,100.00
2022-11-03T22:55:49.339Z,100.00
2022-11-03T22:58:17.167Z,100.00
2022-11-03T23:00:45.532Z,100.00
2022-11-03T23:03:14.362Z,100.00
2022-11-03T23:05:43.035Z,100.00
2022-11-03T23:08:10.917Z,100.00
2022-11-03T23:10:38.848Z,100.00
2022-11-03T23:13:07.028Z,100.00
2022-11-03T23:15:35.194Z,100.00
2022-11-03T23:18:23.517Z,100.00
2022-11-03T23:21:09.429Z,100.00
2022-11-03T23:23:57.819Z,100.00
2022-11-03T23:26:27.135Z,100.00
2022-11-03T23:28:55.231Z,100.00
2022-11-03T23:31:23.063Z,100.00
2022-11-03T23:33:51.102Z,100.00
2022-11-03T23:36:19.037Z,100.00
2022-11-03T23:38:46.887Z,100.00
2022-11-03T23:41:17.139Z,100.00
2022-11-03T23:43:47.635Z,100.00
2022-11-03T23:46:37.393Z,100.00
2022-11-03T23:49:05.473Z,100.00
2022-11-03T23:51:35.444Z,100.00
2022-11-03T23:54:06.758Z,100.00
2022-11-03T23:56:56.004Z,100.00
2022-11-03T23:59:24.592Z,100.00
